^^
Station Historical Data
Daily Summary for January 14, 2018 Units:  English    Metric   Both
« Previous Day
Next Day »
Daily Weekly Monthly Yearly Custom
  High: Low: Average:
Temperature: TemperatureF °F 39.0 °F 48.4 °F
Dew Point: DewpointF °F 33.0 °F 39 °F
Humidity: Humidity% 53% 70%
Wind Speed: WindSpeedMPHmph 0.0mph 0mph
Wind Gust: WindSpeedGustMPHmph - -
Wind- - North
Pressure: PressureIn in 30.29 in -
Precipitation: 0.00 in    
Historical Graphs
 
 
Tabular Data for January 14, 2018
Time Temperature Dew Point Pressure Wind Wind Speed Wind Gust Humidity Rainfall Rate (Hourly) solar Conditions
TemperatureF °F DewpointF °F PressureIn in Calm     Humidity% HourlyPrecipIn in SolarRadiationWatts/m^2 W/m2 Conditions
00:00 46.9 °F 40.8 °F 30.33 in Calm     79% 0.00 in 0.0 W/m2 OVC
00:10 46.0 °F 38.9 °F 30.33 in Calm     76% 0.00 in 0.0 W/m2 OVC
00:15 46.0 °F 38.9 °F 30.33 in Calm     76% 0.00 in 0.0 W/m2 OVC
00:20 46.0 °F 38.9 °F 30.33 in Calm     76% 0.00 in 0.0 W/m2 OVC
00:40 46.0 °F 38.9 °F 30.33 in Calm     76% 0.00 in 0.0 W/m2 OVC
00:55 46.0 °F 38.9 °F 30.33 in Calm     76% 0.00 in 0.0 W/m2 OVC
01:00 46.0 °F 38.9 °F 30.33 in Calm     76% 0.00 in 0.0 W/m2 OVC
01:10 45.0 °F 35.8 °F 30.33 in Calm     70% 0.00 in 0.0 W/m2 OVC
01:15 45.0 °F 35.8 °F 30.33 in Calm     70% 0.00 in 0.0 W/m2 OVC
01:25 45.0 °F 35.8 °F 30.33 in Calm     70% 0.00 in 0.0 W/m2 OVC
01:30 45.0 °F 35.8 °F 30.33 in Calm     70% 0.00 in 0.0 W/m2 OVC
01:40 45.0 °F 35.8 °F 30.33 in Calm     70% 0.00 in 0.0 W/m2 OVC
01:45 45.0 °F 35.8 °F 30.33 in Calm     70% 0.00 in 0.0 W/m2 OVC
02:00 45.0 °F 35.8 °F 30.33 in Calm     70% 0.00 in 0.0 W/m2 OVC
02:10 44.1 °F 35.6 °F 30.31 in Calm     72% 0.00 in 0.0 W/m2 SCT
02:15 44.1 °F 35.6 °F 30.31 in Calm     72% 0.00 in 0.0 W/m2 SCT
02:25 44.1 °F 35.6 °F 30.31 in Calm     72% 0.00 in 0.0 W/m2 SCT
02:40 44.1 °F 35.6 °F 30.31 in Calm     72% 0.00 in 0.0 W/m2 SCT
02:45 44.1 °F 35.6 °F 30.31 in Calm     72% 0.00 in 0.0 W/m2 SCT
02:55 44.1 °F 35.6 °F 30.31 in Calm     72% 0.00 in 0.0 W/m2 SCT
03:00 44.1 °F 35.6 °F 30.31 in Calm     72% 0.00 in 0.0 W/m2 SCT
03:10 42.1 °F 34.7 °F 30.31 in Calm     75% 0.00 in 0.0 W/m2 CLR
03:15 42.1 °F 34.7 °F 30.31 in Calm     75% 0.00 in 0.0 W/m2 CLR
03:25 42.1 °F 34.7 °F 30.31 in Calm     75% 0.00 in 0.0 W/m2 CLR
03:30 42.1 °F 34.7 °F 30.31 in Calm     75% 0.00 in 0.0 W/m2 CLR
03:40 42.1 °F 34.7 °F 30.31 in Calm     75% 0.00 in 0.0 W/m2 CLR
03:45 42.1 °F 34.7 °F 30.31 in Calm     75% 0.00 in 0.0 W/m2 CLR
03:55 42.1 °F 34.7 °F 30.31 in Calm     75% 0.00 in 0.0 W/m2 CLR
04:00 42.1 °F 34.7 °F 30.31 in Calm     75% 0.00 in 0.0 W/m2 CLR
04:10 39.9 °F 33.9 °F 30.31 in Calm     79% 0.00 in 0.0 W/m2 CLR
04:15 39.9 °F 33.9 °F 30.31 in Calm     79% 0.00 in 0.0 W/m2 CLR
04:25 39.9 °F 33.9 °F 30.31 in Calm     79% 0.00 in 0.0 W/m2 CLR
04:30 39.9 °F 33.9 °F 30.31 in Calm     79% 0.00 in 0.0 W/m2 CLR
04:40 39.9 °F 33.9 °F 30.31 in Calm     79% 0.00 in 0.0 W/m2 CLR
04:45 39.9 °F 33.9 °F 30.31 in Calm     79% 0.00 in 0.0 W/m2 CLR
05:00 39.9 °F 33.9 °F 30.31 in Calm     79% 0.00 in 0.0 W/m2 CLR
05:10 41.0 °F 35.0 °F 30.31 in Calm     79% 0.00 in 0.0 W/m2 CLR
05:15 41.0 °F 35.0 °F 30.31 in Calm     79% 0.00 in 0.0 W/m2 CLR
05:25 41.0 °F 35.0 °F 30.31 in Calm     79% 0.00 in 0.0 W/m2 CLR
05:30 41.0 °F 35.0 °F 30.31 in Calm     79% 0.00 in 0.0 W/m2 CLR
05:40 41.0 °F 35.0 °F 30.31 in Calm     79% 0.00 in 0.0 W/m2 CLR
05:45 41.0 °F 35.0 °F 30.31 in Calm     79% 0.00 in 0.0 W/m2 CLR
05:55 41.0 °F 35.0 °F 30.31 in Calm     79% 0.00 in 0.0 W/m2 CLR
06:00 41.0 °F 35.0 °F 30.31 in Calm     79% 0.00 in 0.0 W/m2 CLR
06:10 39.9 °F 33.0 °F 30.33 in Calm     76% 0.00 in 0.0 W/m2 CLR
06:15 39.9 °F 33.0 °F 30.33 in Calm     76% 0.00 in 0.0 W/m2 CLR
06:30 39.9 °F 33.0 °F 30.33 in Calm     76% 0.00 in 0.0 W/m2 CLR
06:40 39.9 °F 33.0 °F 30.33 in Calm     76% 0.00 in 0.0 W/m2 CLR
06:45 39.9 °F 33.0 °F 30.33 in Calm     76% 0.00 in 0.0 W/m2 CLR
06:55 39.9 °F 33.0 °F 30.33 in Calm     76% 0.00 in 0.0 W/m2 CLR
07:00 39.9 °F 33.0 °F 30.33 in Calm     76% 0.00 in 0.0 W/m2 CLR
07:10 39.0 °F 33.7 °F 30.36 in Calm     81% 0.00 in 0.0 W/m2 CLR
07:15 39.0 °F 33.7 °F 30.36 in Calm     81% 0.00 in 0.0 W/m2 CLR
07:30 39.0 °F 33.7 °F 30.36 in Calm     81% 0.00 in 0.0 W/m2 CLR
07:40 39.0 °F 33.7 °F 30.36 in Calm     81% 0.00 in 0.0 W/m2 CLR
07:55 39.0 °F 33.7 °F 30.36 in Calm     81% 0.00 in 0.0 W/m2 CLR
08:10 39.9 °F 34.9 °F 30.37 in Calm     82% 0.00 in 0.0 W/m2 CLR
08:15 39.9 °F 34.9 °F 30.37 in Calm     82% 0.00 in 0.0 W/m2 CLR
08:25 39.9 °F 34.9 °F 30.37 in Calm     82% 0.00 in 0.0 W/m2 CLR
08:30 39.9 °F 34.9 °F 30.37 in Calm     82% 0.00 in 0.0 W/m2 CLR
08:40 39.9 °F 34.9 °F 30.37 in Calm     82% 0.00 in 0.0 W/m2 CLR
08:45 39.9 °F 34.9 °F 30.37 in Calm     82% 0.00 in 0.0 W/m2 CLR
09:00 39.9 °F 34.9 °F 30.37 in Calm     82% 0.00 in 0.0 W/m2 CLR
09:15 43.0 °F 35.9 °F 30.37 in Calm     76% 0.00 in 0.0 W/m2 CLR
09:25 43.0 °F 35.9 °F 30.37 in Calm     76% 0.00 in 0.0 W/m2 CLR
09:30 43.0 °F 35.9 °F 30.37 in Calm     76% 0.00 in 0.0 W/m2 CLR
09:40 43.0 °F 35.9 °F 30.37 in Calm     76% 0.00 in 0.0 W/m2 CLR
09:45 43.0 °F 35.9 °F 30.37 in Calm     76% 0.00 in 0.0 W/m2 CLR
09:55 43.0 °F 35.9 °F 30.37 in Calm     76% 0.00 in 0.0 W/m2 CLR
10:00 43.0 °F 35.9 °F 30.37 in Calm     76% 0.00 in 0.0 W/m2 CLR
10:10 48.0 °F 38.7 °F 30.38 in Calm     70% 0.00 in 0.0 W/m2 CLR
10:15 48.0 °F 38.7 °F 30.38 in Calm     70% 0.00 in 0.0 W/m2 CLR
10:25 48.0 °F 38.7 °F 30.38 in Calm     70% 0.00 in 0.0 W/m2 CLR
10:40 48.0 °F 38.7 °F 30.38 in Calm     70% 0.00 in 0.0 W/m2 CLR
10:45 48.0 °F 38.7 °F 30.38 in Calm     70% 0.00 in 0.0 W/m2 CLR
10:55 48.0 °F 38.7 °F 30.38 in Calm     70% 0.00 in 0.0 W/m2 CLR
11:00 48.0 °F 38.7 °F 30.38 in Calm     70% 0.00 in 0.0 W/m2 CLR
11:10 52.0 °F 39.8 °F 30.37 in Calm     63% 0.00 in 0.0 W/m2 CLR
11:15 52.0 °F 39.8 °F 30.37 in Calm     63% 0.00 in 0.0 W/m2 CLR
11:25 52.0 °F 39.8 °F 30.37 in Calm     63% 0.00 in 0.0 W/m2 CLR
11:30 52.0 °F 39.8 °F 30.37 in Calm     63% 0.00 in 0.0 W/m2 CLR
11:40 52.0 °F 39.8 °F 30.37 in Calm     63% 0.00 in 0.0 W/m2 CLR
11:45 52.0 °F 39.8 °F 30.37 in Calm     63% 0.00 in 0.0 W/m2 CLR
11:55 52.0 °F 39.8 °F 30.37 in Calm     63% 0.00 in 0.0 W/m2 CLR
12:15 57.0 °F 40.5 °F 30.36 in Calm     54% 0.00 in 0.0 W/m2 CLR
12:25 57.0 °F 40.5 °F 30.36 in Calm     54% 0.00 in 0.0 W/m2 CLR
12:30 57.0 °F 40.5 °F 30.36 in Calm     54% 0.00 in 0.0 W/m2 CLR
12:40 57.0 °F 40.5 °F 30.36 in Calm     54% 0.00 in 0.0 W/m2 CLR
12:45 57.0 °F 40.5 °F 30.36 in Calm     54% 0.00 in 0.0 W/m2 CLR
12:55 57.0 °F 40.5 °F 30.36 in Calm     54% 0.00 in 0.0 W/m2 CLR
13:00 57.0 °F 40.5 °F 30.36 in Calm     54% 0.00 in 0.0 W/m2 CLR
13:10 59.0 °F 41.9 °F 30.33 in Calm     53% 0.00 in 0.0 W/m2 CLR
13:25 59.0 °F 41.9 °F 30.33 in Calm     53% 0.00 in 0.0 W/m2 CLR
13:30 59.0 °F 41.9 °F 30.33 in Calm     53% 0.00 in 0.0 W/m2 CLR
13:40 59.0 °F 41.9 °F 30.33 in Calm     53% 0.00 in 0.0 W/m2 CLR
13:45 59.0 °F 41.9 °F 30.33 in Calm     53% 0.00 in 0.0 W/m2 CLR
13:55 59.0 °F 41.9 °F 30.33 in Calm     53% 0.00 in 0.0 W/m2 CLR
14:00 59.0 °F 41.9 °F 30.33 in Calm     53% 0.00 in 0.0 W/m2 CLR
14:10 60.1 °F 42.9 °F 30.31 in Calm     53% 0.00 in 0.0 W/m2 BKN
14:15 60.1 °F 42.9 °F 30.31 in Calm     53% 0.00 in 0.0 W/m2 BKN
14:30 60.1 °F 42.9 °F 30.31 in Calm     53% 0.00 in 0.0 W/m2 BKN
14:40 60.1 °F 42.9 °F 30.31 in Calm     53% 0.00 in 0.0 W/m2 BKN
14:45 60.1 °F 42.9 °F 30.31 in Calm     53% 0.00 in 0.0 W/m2 BKN
14:55 60.1 °F 42.9 °F 30.31 in Calm     53% 0.00 in 0.0 W/m2 BKN
15:00 60.1 °F 42.9 °F 30.31 in Calm     53% 0.00 in 0.0 W/m2 BKN
15:10 61.0 °F 44.7 °F 30.30 in Calm     55% 0.00 in 0.0 W/m2 BKN
15:15 61.0 °F 44.7 °F 30.30 in Calm     55% 0.00 in 0.0 W/m2 BKN
15:30 61.0 °F 44.7 °F 30.30 in Calm     55% 0.00 in 0.0 W/m2 BKN
15:40 61.0 °F 44.7 °F 30.30 in Calm     55% 0.00 in 0.0 W/m2 BKN
15:50 61.0 °F 44.7 °F 30.30 in Calm     55% 0.00 in 0.0 W/m2 BKN
15:55 61.0 °F 44.7 °F 30.30 in Calm     55% 0.00 in 0.0 W/m2 BKN
16:00 61.0 °F 44.7 °F 30.30 in Calm     55% 0.00 in 0.0 W/m2 BKN
16:10 60.1 °F 44.8 °F 30.29 in Calm     57% 0.00 in 0.0 W/m2 FEW
16:15 60.1 °F 44.8 °F 30.29 in Calm     57% 0.00 in 0.0 W/m2 FEW
16:30 60.1 °F 44.8 °F 30.29 in Calm     57% 0.00 in 0.0 W/m2 BKN
16:40 60.1 °F 44.8 °F 30.29 in Calm     57% 0.00 in 0.0 W/m2 OVC
16:45 60.1 °F 44.8 °F 30.29 in Calm     57% 0.00 in 0.0 W/m2 OVC
16:55 60.1 °F 44.8 °F 30.29 in Calm     57% 0.00 in 0.0 W/m2 OVC
17:00 60.1 °F 44.8 °F 30.29 in Calm     57% 0.00 in 0.0 W/m2 OVC
17:25 57.0 °F 44.5 °F 30.30 in Calm     63% 0.00 in 0.0 W/m2 OVC
17:30 57.0 °F 44.5 °F 30.30 in Calm     63% 0.00 in 0.0 W/m2 OVC
17:40 57.0 °F 44.5 °F 30.30 in Calm     63% 0.00 in 0.0 W/m2 OVC
17:45 57.0 °F 44.5 °F 30.30 in Calm     63% 0.00 in 0.0 W/m2 OVC
17:55 57.0 °F 44.5 °F 30.30 in Calm     63% 0.00 in 0.0 W/m2 OVC
18:10 54.0 °F 44.8 °F 30.32 in Calm     71% 0.00 in 0.0 W/m2 OVC
18:15 54.0 °F 44.8 °F 30.32 in Calm     71% 0.00 in 0.0 W/m2 OVC
18:30 54.0 °F 44.8 °F 30.32 in Calm     71% 0.00 in 0.0 W/m2 OVC
18:40 54.0 °F 44.8 °F 30.32 in Calm     71% 0.00 in 0.0 W/m2 OVC
18:55 54.0 °F 44.8 °F 30.32 in Calm     71% 0.00 in 0.0 W/m2 OVC
19:10 51.1 °F 42.7 °F 30.32 in Calm     73% 0.00 in 0.0 W/m2 OVC
19:15 51.1 °F 42.7 °F 30.32 in Calm     73% 0.00 in 0.0 W/m2 OVC
19:25 51.1 °F 42.7 °F 30.32 in Calm     73% 0.00 in 0.0 W/m2 OVC
19:30 51.1 °F 42.7 °F 30.32 in Calm     73% 0.00 in 0.0 W/m2 OVC
19:45 51.1 °F 42.7 °F 30.32 in Calm     73% 0.00 in 0.0 W/m2 OVC
20:00 51.1 °F 42.7 °F 30.32 in Calm     73% 0.00 in 0.0 W/m2 OVC
20:10 50.0 °F 42.7 °F 30.33 in Calm     76% 0.00 in 0.0 W/m2 OVC
20:15 50.0 °F 42.7 °F 30.33 in Calm     76% 0.00 in 0.0 W/m2 OVC
20:25 50.0 °F 42.7 °F 30.33 in Calm     76% 0.00 in 0.0 W/m2 OVC
20:40 50.0 °F 42.7 °F 30.33 in Calm     76% 0.00 in 0.0 W/m2 OVC
20:45 50.0 °F 42.7 °F 30.33 in Calm     76% 0.00 in 0.0 W/m2 OVC
20:50 50.0 °F 42.7 °F 30.33 in Calm     76% 0.00 in 0.0 W/m2 OVC
21:10 48.0 °F 41.8 °F 30.34 in Calm     79% 0.00 in 0.0 W/m2 OVC
21:25 48.9 °F 42.7 °F 30.34 in Calm     79% 0.00 in 0.0 W/m2 OVC
21:30 48.9 °F 42.7 °F 30.34 in Calm     79% 0.00 in 0.0 W/m2 OVC
21:40 48.9 °F 42.7 °F 30.34 in Calm     79% 0.00 in 0.0 W/m2 OVC
21:55 48.9 °F 42.7 °F 30.34 in Calm     79% 0.00 in 0.0 W/m2 OVC
22:00 48.9 °F 42.7 °F 30.34 in Calm     79% 0.00 in 0.0 W/m2 OVC
22:10 48.0 °F 41.8 °F 30.35 in Calm     79% 0.00 in 0.0 W/m2 BKN
22:15 48.0 °F 41.8 °F 30.35 in Calm     79% 0.00 in 0.0 W/m2 BKN
22:30 48.0 °F 41.8 °F 30.35 in Calm     79% 0.00 in 0.0 W/m2 BKN
22:40 48.0 °F 41.8 °F 30.35 in Calm     79% 0.00 in 0.0 W/m2 BKN
22:45 48.0 °F 41.8 °F 30.35 in Calm     79% 0.00 in 0.0 W/m2 BKN
22:55 48.0 °F 41.8 °F 30.35 in Calm     79% 0.00 in 0.0 W/m2 BKN
23:00 48.0 °F 41.8 °F 30.35 in Calm     79% 0.00 in 0.0 W/m2 BKN
23:10 46.9 °F 42.0 °F 30.35 in Calm     83% 0.00 in 0.0 W/m2 BKN
23:15 46.9 °F 42.0 °F 30.35 in Calm     83% 0.00 in 0.0 W/m2 BKN
23:25 46.9 °F 42.0 °F 30.35 in Calm     83% 0.00 in 0.0 W/m2 FEW
23:30 46.9 °F 42.0 °F 30.35 in Calm     83% 0.00 in 0.0 W/m2 FEW
23:40 46.9 °F 42.0 °F 30.35 in Calm     83% 0.00 in 0.0 W/m2 FEW
23:45 46.9 °F 42.0 °F 30.35 in Calm     83% 0.00 in 0.0 W/m2 FEW
23:55 46.9 °F 42.0 °F 30.35 in Calm     83% 0.00 in 0.0 W/m2 BKN
Lake Mary, FL, USA
Compliments of Weather Underground - 1.5 mb